Time;durP1;ratioP1;P1;durP2;ratioP2;P2;SDS_P1;SDS_P2;PMS_P1;PMS_P2;Temp;Humidity;BMP_temperature;BMP_pressure;BME280_temperature;BME280_humidity;BME280_pressure;Samples;Min_cycle;Max_cycle;Signal;HPM_P1;HPM_P2
2024/03/31 04:02:01;;;;;;;1999.90;999.90;;;;;;;;;;5423763;23;20297;-70
2024/03/31 04:04:45;;;;;;;1999.90;999.90;;;;;;;;;;4994670;28;20202;-70
2024/03/31 04:07:30;;;;;;;1999.90;999.90;;;;;;;;;;4995632;28;20206;-68
2024/03/31 04:10:14;;;;;;;1999.90;999.90;;;;;;;;;;4995259;28;20241;-69
2024/03/31 04:12:59;;;;;;;1999.90;999.90;;;;;;;;;;4974341;28;20207;-68
2024/03/31 04:15:44;;;;;;;1999.90;999.90;;;;;;;;;;4974514;28;20208;-68
2024/03/31 04:18:29;;;;;;;1999.90;999.90;;;;;;;;;;4974160;28;20308;-68
2024/03/31 04:21:14;;;;;;;1999.90;999.90;;;;;;;;;;4973205;28;20400;-69
2024/03/31 04:23:59;;;;;;;1999.90;999.90;;;;;;;;;;4959446;28;20212;-70
2024/03/31 04:26:43;;;;;;;1999.90;999.90;;;;;;;;;;4961624;28;20211;-70
2024/03/31 04:29:28;;;;;;;1999.90;999.90;;;;;;;;;;4964898;28;20204;-69
2024/03/31 04:32:12;;;;;;;1999.90;999.90;;;;;;;;;;4972707;28;20715;-69
2024/03/31 04:34:59;;;;;;;1999.90;999.90;;;;;;;;;;4972748;28;20204;-70
2024/03/31 04:37:46;;;;;;;1999.90;999.90;;;;;;;;;;4974298;28;20580;-69
2024/03/31 04:40:31;;;;;;;1999.90;999.90;;;;;;;;;;4955003;28;20618;-69
2024/03/31 04:43:15;;;;;;;1999.90;999.90;;;;;;;;;;4955258;29;20213;-67
2024/03/31 04:46:00;;;;;;;1999.90;999.90;;;;;;;;;;4954649;28;20697;-68
2024/03/31 04:48:44;;;;;;;1999.90;999.90;;;;;;;;;;4954892;29;20349;-68
2024/03/31 04:51:31;;;;;;;1999.90;999.90;;;;;;;;;;4969812;28;20660;-68
2024/03/31 04:54:15;;;;;;;1999.90;999.90;;;;;;;;;;4961488;28;20208;-68
2024/03/31 04:57:00;;;;;;;1999.90;999.90;;;;;;;;;;4973125;28;20211;-68
2024/03/31 04:59:44;;;;;;;1999.90;999.90;;;;;;;;;;4973680;28;20204;-68
2024/03/31 05:02:30;;;;;;;1999.90;999.90;;;;;;;;;;4973373;28;20227;-68
2024/03/31 05:05:14;;;;;;;1999.90;999.90;;;;;;;;;;4973487;28;20312;-68
2024/03/31 05:08:00;;;;;;;1999.90;999.90;;;;;;;;;;4973051;28;20210;-68
2024/03/31 05:10:52;;;;;;;1999.90;999.90;;;;;;;;;;4972660;28;20236;-68
2024/03/31 05:13:37;;;;;;;1999.90;999.90;;;;;;;;;;4973232;28;20521;-68
2024/03/31 05:16:21;;;;;;;1999.90;999.90;;;;;;;;;;4972966;28;20211;-68
2024/03/31 05:19:05;;;;;;;1999.90;999.90;;;;;;;;;;4973333;28;20212;-68
2024/03/31 05:21:49;;;;;;;1999.90;999.90;;;;;;;;;;4970496;28;20615;-68
2024/03/31 05:24:36;;;;;;;1999.90;999.90;;;;;;;;;;4973596;28;20203;-68
2024/03/31 05:27:20;;;;;;;1999.90;999.90;;;;;;;;;;4973256;28;20788;-68
2024/03/31 05:30:05;;;;;;;1999.90;999.90;;;;;;;;;;4972905;28;20267;-68
2024/03/31 05:32:49;;;;;;;1999.90;999.90;;;;;;;;;;4972935;28;20211;-67
2024/03/31 05:35:34;;;;;;;1999.90;999.90;;;;;;;;;;4972798;28;20298;-67
2024/03/31 05:38:17;;;;;;;1999.90;999.90;;;;;;;;;;4973289;28;20247;-67
2024/03/31 05:41:04;;;;;;;1999.90;999.90;;;;;;;;;;4972746;28;20228;-67
2024/03/31 05:43:48;;;;;;;1999.90;999.90;;;;;;;;;;4973390;28;20219;-67
2024/03/31 05:46:33;;;;;;;1999.90;999.90;;;;;;;;;;4972836;28;20211;-68
2024/03/31 05:49:16;;;;;;;1999.90;999.90;;;;;;;;;;4973024;28;20275;-68
2024/03/31 05:52:01;;;;;;;1999.90;999.90;;;;;;;;;;4972479;28;20438;-68
2024/03/31 05:54:45;;;;;;;1999.90;999.90;;;;;;;;;;4972746;28;20719;-65
2024/03/31 05:57:31;;;;;;;1999.90;999.90;;;;;;;;;;4972856;28;20214;-67
2024/03/31 06:00:16;;;;;;;1999.90;999.90;;;;;;;;;;4972601;28;20756;-68
2024/03/31 06:03:01;;;;;;;1999.90;999.90;;;;;;;;;;4953644;29;20212;-68
2024/03/31 06:05:45;;;;;;;1999.90;999.90;;;;;;;;;;4968295;28;20208;-67
2024/03/31 06:08:30;;;;;;;1999.90;999.90;;;;;;;;;;4973077;28;20259;-67
2024/03/31 06:11:15;;;;;;;1999.90;999.90;;;;;;;;;;4971633;28;20957;-67
2024/03/31 06:14:01;;;;;;;1999.90;999.90;;;;;;;;;;4972842;28;20208;-68
2024/03/31 06:16:45;;;;;;;1999.90;999.90;;;;;;;;;;4964512;28;20207;-68
2024/03/31 06:19:29;;;;;;;1999.90;999.90;;;;;;;;;;4973123;28;20313;-67
2024/03/31 06:22:14;;;;;;;1999.90;999.90;;;;;;;;;;4972206;28;20227;-68
2024/03/31 06:24:59;;;;;;;1999.90;999.90;;;;;;;;;;4976374;28;20199;-68
2024/03/31 06:27:43;;;;;;;1999.90;999.90;;;;;;;;;;4976068;28;20224;-67
2024/03/31 06:30:29;;;;;;;1999.90;999.90;;;;;;;;;;4975849;28;20270;-68
2024/03/31 06:33:13;;;;;;;1999.90;999.90;;;;;;;;;;4962361;28;20223;-67
2024/03/31 06:35:58;;;;;;;1999.90;999.90;;;;;;;;;;4976393;28;20680;-68
2024/03/31 06:38:42;;;;;;;1999.90;999.90;;;;;;;;;;4976187;28;20223;-67
2024/03/31 06:41:26;;;;;;;1999.90;999.90;;;;;;;;;;4976172;28;20224;-67
2024/03/31 06:44:10;;;;;;;1999.90;999.90;;;;;;;;;;4976240;28;20210;-67
2024/03/31 06:46:56;;;;;;;1999.90;999.90;;;;;;;;;;4975956;28;20281;-67
2024/03/31 06:49:40;;;;;;;1999.90;999.90;;;;;;;;;;4976173;28;20290;-67
2024/03/31 06:52:25;;;;;;;1999.90;999.90;;;;;;;;;;4976367;28;20290;-68
2024/03/31 06:55:10;;;;;;;1999.90;999.90;;;;;;;;;;4976047;28;20704;-65
2024/03/31 06:57:54;;;;;;;1999.90;999.90;;;;;;;;;;4976273;28;20215;-68
2024/03/31 07:00:39;;;;;;;1999.90;999.90;;;;;;;;;;4975772;28;20228;-68
2024/03/31 07:03:26;;;;;;;1999.90;999.90;;;;;;;;;;4976042;28;20332;-67
2024/03/31 07:06:10;;;;;;;1999.90;999.90;;;;;;;;;;4975635;28;20210;-67
2024/03/31 07:08:55;;;;;;;1999.90;999.90;;;;;;;;;;4974567;28;21032;-68
2024/03/31 07:11:39;;;;;;;1999.90;999.90;;;;;;;;;;4975498;28;20236;-67
2024/03/31 07:14:24;;;;;;;1999.90;999.90;;;;;;;;;;4975620;28;20596;-67
2024/03/31 07:17:08;;;;;;;1999.90;999.90;;;;;;;;;;4975845;28;20212;-67
2024/03/31 07:19:54;;;;;;;1999.90;999.90;;;;;;;;;;4975695;28;20235;-67
2024/03/31 07:22:38;;;;;;;1999.90;999.90;;;;;;;;;;4975578;28;20775;-68
2024/03/31 07:25:23;;;;;;;1999.90;999.90;;;;;;;;;;4975600;28;20282;-68
2024/03/31 07:28:06;;;;;;;1999.90;999.90;;;;;;;;;;4975594;28;20331;-67
2024/03/31 07:30:51;;;;;;;1999.90;999.90;;;;;;;;;;4974977;28;20263;-66
2024/03/31 07:33:36;;;;;;;1999.90;999.90;;;;;;;;;;4972621;28;20203;-67
2024/03/31 07:36:21;;;;;;;1999.90;999.90;;;;;;;;;;4967923;28;20295;-67
2024/03/31 07:39:06;;;;;;;1999.90;999.90;;;;;;;;;;4975076;28;20340;-67
2024/03/31 07:41:50;;;;;;;1999.90;999.90;;;;;;;;;;4964472;28;20728;-67
2024/03/31 07:44:35;;;;;;;1999.90;999.90;;;;;;;;;;4970305;28;20500;-67
2024/03/31 07:47:19;;;;;;;1999.90;999.90;;;;;;;;;;4975199;28;20340;-67
2024/03/31 07:50:04;;;;;;;1999.90;999.90;;;;;;;;;;4975087;28;20207;-68
2024/03/31 07:52:50;;;;;;;1999.90;999.90;;;;;;;;;;4974531;28;20227;-68
2024/03/31 07:55:34;;;;;;;1999.90;999.90;;;;;;;;;;4974605;28;20799;-67
2024/03/31 07:58:18;;;;;;;1999.90;999.90;;;;;;;;;;4974912;28;20305;-66
2024/03/31 08:01:04;;;;;;;1999.90;999.90;;;;;;;;;;4957791;28;20284;-67
2024/03/31 08:03:48;;;;;;;1999.90;999.90;;;;;;;;;;4955573;29;20208;-67
2024/03/31 08:06:32;;;;;;;1999.90;999.90;;;;;;;;;;4954928;29;20728;-66
2024/03/31 08:09:18;;;;;;;1999.90;999.90;;;;;;;;;;4969866;28;20259;-67
2024/03/31 08:12:03;;;;;;;1999.90;999.90;;;;;;;;;;4974395;28;20281;-67
2024/03/31 08:14:47;;;;;;;1999.90;999.90;;;;;;;;;;4974361;28;20211;-67
2024/03/31 08:17:32;;;;;;;1999.90;999.90;;;;;;;;;;4974569;28;20210;-67
2024/03/31 08:20:17;;;;;;;1999.90;999.90;;;;;;;;;;4974538;28;20207;-67
2024/03/31 08:23:02;;;;;;;1999.90;999.90;;;;;;;;;;4974100;28;20208;-68
2024/03/31 08:25:52;;;;;;;1999.90;999.90;;;;;;;;;;4974058;28;20573;-67
2024/03/31 08:28:36;;;;;;;1999.90;999.90;;;;;;;;;;4974397;28;20208;-68
2024/03/31 08:31:21;;;;;;;1999.90;999.90;;;;;;;;;;4973281;28;20629;-66
2024/03/31 08:34:05;;;;;;;1999.90;999.90;;;;;;;;;;4974247;28;20809;-66
2024/03/31 08:36:50;;;;;;;1999.90;999.90;;;;;;;;;;4973900;28;20311;-67
2024/03/31 08:39:34;;;;;;;1999.90;999.90;;;;;;;;;;4973548;28;20227;-68
2024/03/31 08:42:22;;;;;;;1999.90;999.90;;;;;;;;;;4973130;28;20508;-67
2024/03/31 08:45:09;;;;;;;1999.90;999.90;;;;;;;;;;4973582;28;20231;-67
2024/03/31 08:47:56;;;;;;;1999.90;999.90;;;;;;;;;;4973522;28;20696;-67
2024/03/31 08:50:41;;;;;;;1999.90;999.90;;;;;;;;;;4973711;28;20239;-69
2024/03/31 08:53:27;;;;;;;1999.90;999.90;;;;;;;;;;4973204;28;20209;-66
2024/03/31 08:56:11;;;;;;;1999.90;999.90;;;;;;;;;;4973353;28;20327;-67
2024/03/31 08:58:59;;;;;;;1999.90;999.90;;;;;;;;;;4954250;28;20215;-68
2024/03/31 09:01:44;;;;;;;1999.90;999.90;;;;;;;;;;4963718;28;20910;-67
2024/03/31 09:04:29;;;;;;;1999.90;999.90;;;;;;;;;;4974137;28;20243;-68
2024/03/31 09:07:13;;;;;;;1999.90;999.90;;;;;;;;;;4974029;28;20711;-68
2024/03/31 09:09:57;;;;;;;1999.90;999.90;;;;;;;;;;4973746;28;20200;-67
2024/03/31 09:12:42;;;;;;;1999.90;999.90;;;;;;;;;;4973367;28;20227;-67
2024/03/31 09:15:28;;;;;;;1999.90;999.90;;;;;;;;;;4973118;28;20227;-67
2024/03/31 09:18:12;;;;;;;1999.90;999.90;;;;;;;;;;4972906;28;20210;-67
2024/03/31 09:20:57;;;;;;;1999.90;999.90;;;;;;;;;;4973237;28;20279;-67
2024/03/31 09:23:41;;;;;;;1999.90;999.90;;;;;;;;;;4973670;28;20209;-67
2024/03/31 09:26:26;;;;;;;1999.90;999.90;;;;;;;;;;4972921;28;20210;-68
2024/03/31 09:29:10;;;;;;;1999.90;999.90;;;;;;;;;;4971595;28;20227;-68
2024/03/31 09:32:05;;;;;;;1999.90;999.90;;;;;;;;;;4973080;28;20315;-67
2024/03/31 09:34:49;;;;;;;1999.90;999.90;;;;;;;;;;4972942;28;20257;-67
2024/03/31 09:37:36;;;;;;;1999.90;999.90;;;;;;;;;;4973440;28;20207;-67
2024/03/31 09:40:20;;;;;;;1999.90;999.90;;;;;;;;;;4972924;28;20226;-68
2024/03/31 09:43:05;;;;;;;1999.90;999.90;;;;;;;;;;4967741;28;20211;-67
2024/03/31 09:45:49;;;;;;;1999.90;999.90;;;;;;;;;;4972530;28;20215;-68
2024/03/31 09:48:36;;;;;;;1999.90;999.90;;;;;;;;;;4973357;28;20218;-67
2024/03/31 09:51:21;;;;;;;1999.90;999.90;;;;;;;;;;4973269;28;20239;-67
2024/03/31 09:54:06;;;;;;;1999.90;999.90;;;;;;;;;;4973507;28;20216;-67
2024/03/31 09:56:57;;;;;;;1999.90;999.90;;;;;;;;;;4972857;28;20890;-67
2024/03/31 09:59:43;;;;;;;1999.90;999.90;;;;;;;;;;4978131;28;20494;-66
2024/03/31 10:02:29;;;;;;;1999.90;999.90;;;;;;;;;;4979680;28;20310;-66
2024/03/31 10:05:16;;;;;;;1999.90;999.90;;;;;;;;;;4979514;28;20376;-67
2024/03/31 10:08:02;;;;;;;1999.90;999.90;;;;;;;;;;4979526;28;20211;-66
2024/03/31 10:10:46;;;;;;;1999.90;999.90;;;;;;;;;;4979566;28;20227;-66
2024/03/31 10:13:34;;;;;;;1999.90;999.90;;;;;;;;;;4979512;28;20239;-67
2024/03/31 10:16:18;;;;;;;1999.90;999.90;;;;;;;;;;4979043;28;20227;-67
2024/03/31 10:19:03;;;;;;;1999.90;999.90;;;;;;;;;;4979432;28;20207;-67
2024/03/31 10:21:49;;;;;;;1999.90;999.90;;;;;;;;;;4979437;28;20227;-67
2024/03/31 10:24:36;;;;;;;1999.90;999.90;;;;;;;;;;4979398;28;20252;-67
2024/03/31 10:27:21;;;;;;;1999.90;999.90;;;;;;;;;;4979233;28;20212;-68
2024/03/31 10:30:07;;;;;;;1999.90;999.90;;;;;;;;;;4961421;28;20622;-66
2024/03/31 10:32:51;;;;;;;1999.90;999.90;;;;;;;;;;4978979;28;20258;-67
2024/03/31 10:35:37;;;;;;;1999.90;999.90;;;;;;;;;;4975706;28;20259;-67
2024/03/31 10:38:23;;;;;;;1999.90;999.90;;;;;;;;;;4978638;28;20227;-69
2024/03/31 10:41:08;;;;;;;1999.90;999.90;;;;;;;;;;4961964;28;20232;-70
2024/03/31 10:43:52;;;;;;;1999.90;999.90;;;;;;;;;;4960279;28;20232;-70
2024/03/31 10:46:37;;;;;;;1999.90;999.90;;;;;;;;;;4959718;29;20207;-68
2024/03/31 10:49:30;;;;;;;1999.90;999.90;;;;;;;;;;4959306;29;20537;-68
2024/03/31 10:52:17;;;;;;;1999.90;999.90;;;;;;;;;;4977887;28;20236;-67
2024/03/31 10:55:06;;;;;;;1999.90;999.90;;;;;;;;;;4977829;28;20211;-69
2024/03/31 10:57:56;;;;;;;1999.90;999.90;;;;;;;;;;4978764;28;20208;-69
2024/03/31 11:00:41;;;;;;;1999.90;999.90;;;;;;;;;;4978388;28;20243;-69
2024/03/31 11:03:28;;;;;;;1999.90;999.90;;;;;;;;;;4978871;28;20203;-69
2024/03/31 11:06:13;;;;;;;1999.90;999.90;;;;;;;;;;4978554;28;20290;-69
2024/03/31 11:09:00;;;;;;;1999.90;999.90;;;;;;;;;;4977444;28;20227;-70
2024/03/31 11:11:45;;;;;;;1999.90;999.90;;;;;;;;;;4975790;28;20237;-70
2024/03/31 11:14:32;;;;;;;1999.90;999.90;;;;;;;;;;4975859;28;20447;-69
2024/03/31 11:17:17;;;;;;;1999.90;999.90;;;;;;;;;;4975314;28;20571;-69
2024/03/31 11:20:04;;;;;;;1999.90;999.90;;;;;;;;;;4975609;28;20199;-69
2024/03/31 11:22:49;;;;;;;1999.90;999.90;;;;;;;;;;4974561;28;20455;-68
2024/03/31 11:25:35;;;;;;;1999.90;999.90;;;;;;;;;;4975095;28;20324;-69
2024/03/31 11:28:20;;;;;;;1999.90;999.90;;;;;;;;;;4975594;28;20742;-68
2024/03/31 11:31:05;;;;;;;1999.90;999.90;;;;;;;;;;4975248;28;20227;-69
2024/03/31 11:33:49;;;;;;;1999.90;999.90;;;;;;;;;;4975577;28;20692;-68
2024/03/31 11:36:34;;;;;;;1999.90;999.90;;;;;;;;;;4975271;28;20679;-69
2024/03/31 11:39:18;;;;;;;1999.90;999.90;;;;;;;;;;4975267;28;20212;-68
2024/03/31 11:42:03;;;;;;;1999.90;999.90;;;;;;;;;;4974985;28;20415;-69
2024/03/31 11:44:48;;;;;;;1999.90;999.90;;;;;;;;;;4975117;28;20700;-69
2024/03/31 11:47:33;;;;;;;1999.90;999.90;;;;;;;;;;4974710;28;20208;-69
2024/03/31 11:50:18;;;;;;;1999.90;999.90;;;;;;;;;;4964269;28;20291;-69
2024/03/31 11:53:03;;;;;;;1999.90;999.90;;;;;;;;;;4974901;28;20824;-70
2024/03/31 11:55:47;;;;;;;1999.90;999.90;;;;;;;;;;4958086;28;20216;-70
2024/03/31 11:58:36;;;;;;;1999.90;999.90;;;;;;;;;;4955938;29;20585;-70
2024/03/31 12:01:22;;;;;;;1999.90;999.90;;;;;;;;;;4955646;28;20251;-68
2024/03/31 12:04:07;;;;;;;1999.90;999.90;;;;;;;;;;4973305;28;20223;-70
2024/03/31 12:06:53;;;;;;;1999.90;999.90;;;;;;;;;;4974799;28;20792;-69
2024/03/31 12:09:38;;;;;;;1999.90;999.90;;;;;;;;;;4974905;28;20224;-69
2024/03/31 12:12:22;;;;;;;1999.90;999.90;;;;;;;;;;4973895;28;20216;-70
2024/03/31 12:15:09;;;;;;;1999.90;999.90;;;;;;;;;;4955282;29;20209;-70
2024/03/31 12:17:58;;;;;;;1999.90;999.90;;;;;;;;;;4955160;28;20509;-70
2024/03/31 12:20:43;;;;;;;1999.90;999.90;;;;;;;;;;4954771;28;20233;-70
2024/03/31 12:23:27;;;;;;;1999.90;999.90;;;;;;;;;;4972704;28;20204;-70
2024/03/31 12:26:14;;;;;;;1999.90;999.90;;;;;;;;;;4974242;28;20267;-70
2024/03/31 12:28:58;;;;;;;1999.90;999.90;;;;;;;;;;4974278;28;20690;-70
2024/03/31 12:31:43;;;;;;;1999.90;999.90;;;;;;;;;;4962653;28;20232;-68
2024/03/31 12:34:28;;;;;;;1999.90;999.90;;;;;;;;;;4955408;29;20332;-70
2024/03/31 12:37:13;;;;;;;1999.90;999.90;;;;;;;;;;4955085;28;20550;-69
2024/03/31 12:39:57;;;;;;;1999.90;999.90;;;;;;;;;;4973536;28;20211;-70
2024/03/31 12:42:42;;;;;;;1999.90;999.90;;;;;;;;;;4973268;28;20215;-70
2024/03/31 12:45:26;;;;;;;1999.90;999.90;;;;;;;;;;4967170;28;20209;-70
2024/03/31 12:48:11;;;;;;;1999.90;999.90;;;;;;;;;;4954822;28;20204;-70
2024/03/31 12:50:56;;;;;;;1999.90;999.90;;;;;;;;;;4961233;28;20826;-70
2024/03/31 12:53:42;;;;;;;1999.90;999.90;;;;;;;;;;4973884;28;20231;-71
2024/03/31 12:56:26;;;;;;;1999.90;999.90;;;;;;;;;;4973193;28;20322;-71
2024/03/31 12:59:12;;;;;;;1999.90;999.90;;;;;;;;;;4973825;28;20204;-71
2024/03/31 13:01:58;;;;;;;1999.90;999.90;;;;;;;;;;4958620;28;20602;-69
2024/03/31 13:04:43;;;;;;;1999.90;999.90;;;;;;;;;;4973751;28;20220;-71
2024/03/31 13:07:29;;;;;;;1999.90;999.90;;;;;;;;;;4972993;28;20335;-70
2024/03/31 13:10:13;;;;;;;1999.90;999.90;;;;;;;;;;4968543;28;20328;-71
2024/03/31 13:12:58;;;;;;;1999.90;999.90;;;;;;;;;;4954207;28;20784;-71
2024/03/31 13:15:43;;;;;;;1999.90;999.90;;;;;;;;;;4961899;28;20423;-70
2024/03/31 13:18:27;;;;;;;1999.90;999.90;;;;;;;;;;4973702;28;20312;-70
2024/03/31 13:21:12;;;;;;;1999.90;999.90;;;;;;;;;;4971152;28;20727;-70
2024/03/31 13:23:57;;;;;;;1999.90;999.90;;;;;;;;;;4973605;28;20735;-69
2024/03/31 13:26:42;;;;;;;1999.90;999.90;;;;;;;;;;4956005;28;20249;-70
2024/03/31 13:29:26;;;;;;;1999.90;999.90;;;;;;;;;;4962088;28;20293;-70
2024/03/31 13:32:11;;;;;;;1999.90;999.90;;;;;;;;;;4964470;28;20284;-69
2024/03/31 13:34:55;;;;;;;1999.90;999.90;;;;;;;;;;4953938;28;20292;-71
2024/03/31 13:37:40;;;;;;;1999.90;999.90;;;;;;;;;;4955349;28;20209;-71
2024/03/31 13:40:25;;;;;;;1999.90;999.90;;;;;;;;;;4973451;28;20328;-70
2024/03/31 13:43:10;;;;;;;1999.90;999.90;;;;;;;;;;4973085;28;20271;-69
2024/03/31 13:45:53;;;;;;;1999.90;999.90;;;;;;;;;;4973215;28;20227;-70
2024/03/31 13:48:38;;;;;;;1999.90;999.90;;;;;;;;;;4973243;28;20208;-70
2024/03/31 13:51:22;;;;;;;1999.90;999.90;;;;;;;;;;4968178;28;20232;-71
2024/03/31 13:54:07;;;;;;;1999.90;999.90;;;;;;;;;;4957758;28;20268;-71
2024/03/31 13:56:52;;;;;;;1999.90;999.90;;;;;;;;;;4971690;28;20663;-71
2024/03/31 13:59:38;;;;;;;1999.90;999.90;;;;;;;;;;4969996;28;20626;-68
2024/03/31 14:02:22;;;;;;;1999.90;999.90;;;;;;;;;;4953605;28;20280;-70
2024/03/31 14:05:07;;;;;;;1999.90;999.90;;;;;;;;;;4959562;28;20722;-69
2024/03/31 14:07:50;;;;;;;1999.90;999.90;;;;;;;;;;4953899;29;20220;-70
2024/03/31 14:10:35;;;;;;;1999.90;999.90;;;;;;;;;;4953522;29;20204;-70
2024/03/31 14:13:23;;;;;;;1999.90;999.90;;;;;;;;;;4954609;28;20583;-70
2024/03/31 14:16:09;;;;;;;1999.90;999.90;;;;;;;;;;4963630;28;20579;-69
2024/03/31 14:18:53;;;;;;;1999.90;999.90;;;;;;;;;;4953974;28;20303;-69
2024/03/31 14:21:38;;;;;;;1999.90;999.90;;;;;;;;;;4962799;28;20650;-68
2024/03/31 14:24:22;;;;;;;1999.90;999.90;;;;;;;;;;4972907;28;20308;-70
2024/03/31 14:27:07;;;;;;;1999.90;999.90;;;;;;;;;;4972726;28;20332;-69
2024/03/31 14:29:52;;;;;;;1999.90;999.90;;;;;;;;;;4971164;28;20458;-70
2024/03/31 14:32:37;;;;;;;1999.90;999.90;;;;;;;;;;4972295;28;20671;-70
2024/03/31 14:35:21;;;;;;;1999.90;999.90;;;;;;;;;;4971149;28;20230;-68
2024/03/31 14:38:06;;;;;;;1999.90;999.90;;;;;;;;;;4971860;28;20249;-70
2024/03/31 14:40:50;;;;;;;1999.90;999.90;;;;;;;;;;4971794;28;20235;-70
2024/03/31 14:43:35;;;;;;;1999.90;999.90;;;;;;;;;;4963513;28;20236;-69
2024/03/31 14:46:20;;;;;;;1999.90;999.90;;;;;;;;;;4959322;28;20208;-70
2024/03/31 14:49:05;;;;;;;1999.90;999.90;;;;;;;;;;4964143;28;20251;-70
2024/03/31 14:51:50;;;;;;;1999.90;999.90;;;;;;;;;;4976059;28;20224;-70
2024/03/31 14:54:35;;;;;;;1999.90;999.90;;;;;;;;;;4975274;28;20445;-70
2024/03/31 14:57:19;;;;;;;1999.90;999.90;;;;;;;;;;4976153;28;20348;-70
2024/03/31 15:00:06;;;;;;;1999.90;999.90;;;;;;;;;;4972034;28;20347;-70
2024/03/31 15:02:52;;;;;;;1999.90;999.90;;;;;;;;;;4975999;28;20914;-70
2024/03/31 15:05:42;;;;;;;1999.90;999.90;;;;;;;;;;4975733;28;20208;-70
2024/03/31 15:08:27;;;;;;;1999.90;999.90;;;;;;;;;;4976009;28;20220;-70
2024/03/31 15:11:10;;;;;;;1999.90;999.90;;;;;;;;;;4975849;28;20235;-72
2024/03/31 15:13:55;;;;;;;1999.90;999.90;;;;;;;;;;4975965;28;20224;-70
2024/03/31 15:16:39;;;;;;;1999.90;999.90;;;;;;;;;;4975781;28;20354;-70
2024/03/31 15:19:25;;;;;;;1999.90;999.90;;;;;;;;;;4975663;28;20696;-71
2024/03/31 15:22:09;;;;;;;1999.90;999.90;;;;;;;;;;4975676;28;20232;-70
2024/03/31 15:24:55;;;;;;;1999.90;999.90;;;;;;;;;;4975471;28;20712;-70
2024/03/31 15:27:39;;;;;;;1999.90;999.90;;;;;;;;;;4974514;28;20944;-70
2024/03/31 15:30:24;;;;;;;1999.90;999.90;;;;;;;;;;4956226;28;20189;-69
2024/03/31 15:33:08;;;;;;;1999.90;999.90;;;;;;;;;;4956080;29;20228;-70
2024/03/31 15:35:54;;;;;;;1999.90;999.90;;;;;;;;;;4967521;28;20223;-69
2024/03/31 15:38:38;;;;;;;1999.90;999.90;;;;;;;;;;4973408;28;20360;-70
2024/03/31 15:41:23;;;;;;;1999.90;999.90;;;;;;;;;;4963881;28;20275;-71
2024/03/31 15:44:07;;;;;;;1999.90;999.90;;;;;;;;;;4956148;29;20693;-70
2024/03/31 15:46:52;;;;;;;1999.90;999.90;;;;;;;;;;4967493;28;20644;-70
2024/03/31 15:49:36;;;;;;;1999.90;999.90;;;;;;;;;;4962095;28;20700;-70
2024/03/31 15:52:22;;;;;;;1999.90;999.90;;;;;;;;;;4968689;28;20514;-70
2024/03/31 15:55:06;;;;;;;1999.90;999.90;;;;;;;;;;4970305;28;20215;-70
2024/03/31 15:57:51;;;;;;;1999.90;999.90;;;;;;;;;;4974942;28;20351;-71
2024/03/31 16:00:35;;;;;;;1999.90;999.90;;;;;;;;;;4973978;28;20227;-70
2024/03/31 16:03:20;;;;;;;1999.90;999.90;;;;;;;;;;4975169;28;20227;-69
2024/03/31 16:06:05;;;;;;;1999.90;999.90;;;;;;;;;;4974403;28;20209;-72
2024/03/31 16:08:51;;;;;;;1999.90;999.90;;;;;;;;;;4974806;28;20302;-71
2024/03/31 16:11:35;;;;;;;1999.90;999.90;;;;;;;;;;4974397;28;20290;-71
2024/03/31 16:14:20;;;;;;;1999.90;999.90;;;;;;;;;;4974271;28;20858;-71
2024/03/31 16:17:04;;;;;;;1999.90;999.90;;;;;;;;;;4955198;28;20215;-71
2024/03/31 16:19:50;;;;;;;1999.90;999.90;;;;;;;;;;4973687;28;20267;-71
2024/03/31 16:22:34;;;;;;;1999.90;999.90;;;;;;;;;;4973731;28;20971;-72
2024/03/31 16:25:20;;;;;;;1999.90;999.90;;;;;;;;;;4973985;28;20339;-72
2024/03/31 16:28:04;;;;;;;1999.90;999.90;;;;;;;;;;4974612;28;20630;-71
2024/03/31 16:30:48;;;;;;;1999.90;999.90;;;;;;;;;;4973675;28;20231;-70
2024/03/31 16:33:33;;;;;;;1999.90;999.90;;;;;;;;;;4974187;28;20319;-72
2024/03/31 16:36:17;;;;;;;1999.90;999.90;;;;;;;;;;4973812;28;20200;-70
2024/03/31 16:39:01;;;;;;;1999.90;999.90;;;;;;;;;;4974097;28;20212;-70
2024/03/31 16:41:48;;;;;;;1999.90;999.90;;;;;;;;;;4972531;28;20708;-72
2024/03/31 16:44:32;;;;;;;1999.90;999.90;;;;;;;;;;4967317;28;20712;-72
2024/03/31 16:47:16;;;;;;;1999.90;999.90;;;;;;;;;;4970976;28;21037;-72
2024/03/31 16:50:01;;;;;;;1999.90;999.90;;;;;;;;;;4973427;28;20267;-72
2024/03/31 16:52:46;;;;;;;1999.90;999.90;;;;;;;;;;4970884;28;20219;-72
2024/03/31 16:55:30;;;;;;;1999.90;999.90;;;;;;;;;;4973637;28;20277;-71
2024/03/31 16:58:16;;;;;;;1999.90;999.90;;;;;;;;;;4973514;28;20255;-71
2024/03/31 17:01:00;;;;;;;1999.90;999.90;;;;;;;;;;4972062;28;20861;-71
2024/03/31 17:03:45;;;;;;;1999.90;999.90;;;;;;;;;;4973823;28;20192;-72
2024/03/31 17:06:29;;;;;;;1999.90;999.90;;;;;;;;;;4955213;28;20582;-71
2024/03/31 17:09:14;;;;;;;1999.90;999.90;;;;;;;;;;4956074;28;20705;-71
2024/03/31 17:11:58;;;;;;;1999.90;999.90;;;;;;;;;;4973591;28;20235;-71
2024/03/31 17:14:44;;;;;;;1999.90;999.90;;;;;;;;;;4973036;28;20208;-71
2024/03/31 17:17:28;;;;;;;1999.90;999.90;;;;;;;;;;4973293;28;20593;-71
2024/03/31 17:20:13;;;;;;;1999.90;999.90;;;;;;;;;;4973275;28;20208;-70
2024/03/31 17:22:58;;;;;;;1999.90;999.90;;;;;;;;;;4973574;28;20192;-71
2024/03/31 17:25:42;;;;;;;1999.90;999.90;;;;;;;;;;4972857;28;20211;-72
2024/03/31 17:28:27;;;;;;;1999.90;999.90;;;;;;;;;;4973296;28;20241;-72
2024/03/31 17:31:12;;;;;;;1999.90;999.90;;;;;;;;;;4972329;28;20258;-71
2024/03/31 17:33:57;;;;;;;1999.90;999.90;;;;;;;;;;4972335;28;20723;-71
2024/03/31 17:36:41;;;;;;;1999.90;999.90;;;;;;;;;;4953849;29;20208;-71
2024/03/31 17:39:26;;;;;;;1999.90;999.90;;;;;;;;;;4964397;28;20243;-71
2024/03/31 17:42:11;;;;;;;1999.90;999.90;;;;;;;;;;4973030;28;20553;-71
2024/03/31 17:44:55;;;;;;;1999.90;999.90;;;;;;;;;;4972644;28;20215;-71
2024/03/31 17:47:41;;;;;;;1999.90;999.90;;;;;;;;;;4973141;28;20212;-71
2024/03/31 17:50:26;;;;;;;1999.90;999.90;;;;;;;;;;4971680;28;20211;-72
2024/03/31 17:53:11;;;;;;;1999.90;999.90;;;;;;;;;;4972906;28;20791;-70
2024/03/31 17:55:55;;;;;;;1999.90;999.90;;;;;;;;;;4972759;28;20631;-72
2024/03/31 17:58:40;;;;;;;1999.90;999.90;;;;;;;;;;4973281;28;20212;-73
2024/03/31 18:01:24;;;;;;;1999.90;999.90;;;;;;;;;;4972027;28;20247;-71
2024/03/31 18:04:10;;;;;;;1999.90;999.90;;;;;;;;;;4959322;28;20196;-71
2024/03/31 18:06:55;;;;;;;1999.90;999.90;;;;;;;;;;4964113;28;20324;-70
2024/03/31 18:09:40;;;;;;;1999.90;999.90;;;;;;;;;;4971973;28;20208;-70
2024/03/31 18:12:24;;;;;;;1999.90;999.90;;;;;;;;;;4972646;28;20227;-70
2024/03/31 18:15:10;;;;;;;1999.90;999.90;;;;;;;;;;4971700;28;20415;-70
2024/03/31 18:17:54;;;;;;;1999.90;999.90;;;;;;;;;;4972940;28;20285;-70
2024/03/31 18:20:40;;;;;;;1999.90;999.90;;;;;;;;;;4976829;28;20196;-70
2024/03/31 18:23:24;;;;;;;1999.90;999.90;;;;;;;;;;4977890;28;20207;-70
2024/03/31 18:26:10;;;;;;;1999.90;999.90;;;;;;;;;;4977693;28;20204;-70
2024/03/31 18:28:54;;;;;;;1999.90;999.90;;;;;;;;;;4977039;28;20753;-71
2024/03/31 18:31:39;;;;;;;1999.90;999.90;;;;;;;;;;4976574;28;20274;-71
2024/03/31 18:34:23;;;;;;;1999.90;999.90;;;;;;;;;;4973326;28;20564;-71
2024/03/31 18:37:10;;;;;;;1999.90;999.90;;;;;;;;;;4976146;28;20210;-71
2024/03/31 18:39:53;;;;;;;1999.90;999.90;;;;;;;;;;4975361;28;21021;-70
2024/03/31 18:42:39;;;;;;;1999.90;999.90;;;;;;;;;;4976093;28;20602;-70
2024/03/31 18:45:22;;;;;;;1999.90;999.90;;;;;;;;;;4976349;28;20696;-71
2024/03/31 18:48:07;;;;;;;1999.90;999.90;;;;;;;;;;4976091;28;20243;-71
2024/03/31 18:50:52;;;;;;;1999.90;999.90;;;;;;;;;;4976020;28;20298;-70
2024/03/31 18:53:39;;;;;;;1999.90;999.90;;;;;;;;;;4976089;28;20362;-69
2024/03/31 18:56:23;;;;;;;1999.90;999.90;;;;;;;;;;4956550;28;20741;-71
2024/03/31 18:59:08;;;;;;;1999.90;999.90;;;;;;;;;;4962361;28;20196;-71
2024/03/31 19:01:52;;;;;;;1999.90;999.90;;;;;;;;;;4975395;28;20240;-70
2024/03/31 19:04:37;;;;;;;1999.90;999.90;;;;;;;;;;4957324;29;20683;-70
2024/03/31 19:07:21;;;;;;;1999.90;999.90;;;;;;;;;;4967787;28;20271;-70
2024/03/31 19:10:09;;;;;;;1999.90;999.90;;;;;;;;;;4975884;28;20262;-70
2024/03/31 19:12:53;;;;;;;1999.90;999.90;;;;;;;;;;4974847;28;20447;-71
2024/03/31 19:15:39;;;;;;;1999.90;999.90;;;;;;;;;;4975677;28;20254;-69
2024/03/31 19:18:23;;;;;;;1999.90;999.90;;;;;;;;;;4975461;28;20255;-72
2024/03/31 19:21:08;;;;;;;1999.90;999.90;;;;;;;;;;4975793;28;20231;-69